sensor_id;sensor_type;location;lat;lon;timestamp;pressure;altitude;pressure_sealevel;temperature
76713;BMP280;65640;43.154;25.658;2023-08-06T00:01:36;99285.22;;;24.12
76713;BMP280;65640;43.154;25.658;2023-08-06T00:04:02;99290.28;;;24.02
76713;BMP280;65640;43.154;25.658;2023-08-06T00:06:27;99291.47;;;23.94
76713;BMP280;65640;43.154;25.658;2023-08-06T00:08:52;99293.03;;;23.92
76713;BMP280;65640;43.154;25.658;2023-08-06T00:11:18;99285.50;;;23.73
76713;BMP280;65640;43.154;25.658;2023-08-06T00:13:43;99273.69;;;23.70
76713;BMP280;65640;43.154;25.658;2023-08-06T00:16:13;99276.56;;;23.93
76713;BMP280;65640;43.154;25.658;2023-08-06T00:18:39;99268.63;;;23.86
76713;BMP280;65640;43.154;25.658;2023-08-06T00:21:04;99286.91;;;23.91
76713;BMP280;65640;43.154;25.658;2023-08-06T00:23:29;99281.88;;;24.00
76713;BMP280;65640;43.154;25.658;2023-08-06T00:25:55;99275.44;;;23.94
76713;BMP280;65640;43.154;25.658;2023-08-06T00:28:20;99270.88;;;23.91
76713;BMP280;65640;43.154;25.658;2023-08-06T00:30:46;99270.41;;;24.03
76713;BMP280;65640;43.154;25.658;2023-08-06T00:33:11;99286.03;;;24.08
76713;BMP280;65640;43.154;25.658;2023-08-06T00:35:37;99277.59;;;24.14
76713;BMP280;65640;43.154;25.658;2023-08-06T00:38:02;99288.22;;;24.17
76713;BMP280;65640;43.154;25.658;2023-08-06T00:40:27;99312.22;;;24.28
76713;BMP280;65640;43.154;25.658;2023-08-06T00:42:55;99315.66;;;24.32
76713;BMP280;65640;43.154;25.658;2023-08-06T00:45:21;99322.63;;;24.19
76713;BMP280;65640;43.154;25.658;2023-08-06T00:47:47;99325.69;;;24.17
76713;BMP280;65640;43.154;25.658;2023-08-06T00:50:13;99324.19;;;24.13
76713;BMP280;65640;43.154;25.658;2023-08-06T00:52:38;99342.22;;;24.08
76713;BMP280;65640;43.154;25.658;2023-08-06T00:55:04;99347.22;;;23.99
76713;BMP280;65640;43.154;25.658;2023-08-06T00:57:30;99340.75;;;23.90
76713;BMP280;65640;43.154;25.658;2023-08-06T00:59:56;99345.84;;;23.77
76713;BMP280;65640;43.154;25.658;2023-08-06T01:02:21;99338.59;;;23.78
76713;BMP280;65640;43.154;25.658;2023-08-06T01:04:47;99350.09;;;23.64
76713;BMP280;65640;43.154;25.658;2023-08-06T01:15:14;99341.38;;;23.46
76713;BMP280;65640;43.154;25.658;2023-08-06T01:17:41;99336.09;;;23.35
76713;BMP280;65640;43.154;25.658;2023-08-06T01:20:07;99357.47;;;23.32
76713;BMP280;65640;43.154;25.658;2023-08-06T01:22:33;99361.28;;;23.31
76713;BMP280;65640;43.154;25.658;2023-08-06T01:24:58;99348.31;;;23.40
76713;BMP280;65640;43.154;25.658;2023-08-06T01:27:31;99346.03;;;23.28
76713;BMP280;65640;43.154;25.658;2023-08-06T01:30:20;99343.75;;;23.30
76713;BMP280;65640;43.154;25.658;2023-08-06T01:32:50;99340.69;;;23.24
76713;BMP280;65640;43.154;25.658;2023-08-06T01:35:18;99342.59;;;23.31
76713;BMP280;65640;43.154;25.658;2023-08-06T01:37:45;99345.25;;;23.31
76713;BMP280;65640;43.154;25.658;2023-08-06T01:40:11;99344.50;;;23.27
76713;BMP280;65640;43.154;25.658;2023-08-06T01:42:38;99335.75;;;23.23
76713;BMP280;65640;43.154;25.658;2023-08-06T01:45:04;99341.47;;;23.25
76713;BMP280;65640;43.154;25.658;2023-08-06T01:47:30;99350.66;;;23.17
76713;BMP280;65640;43.154;25.658;2023-08-06T01:49:55;99349.91;;;22.98
76713;BMP280;65640;43.154;25.658;2023-08-06T01:52:21;99346.16;;;22.92
76713;BMP280;65640;43.154;25.658;2023-08-06T01:54:46;99336.59;;;22.91
76713;BMP280;65640;43.154;25.658;2023-08-06T01:57:12;99328.97;;;22.76
76713;BMP280;65640;43.154;25.658;2023-08-06T01:59:37;99329.38;;;22.64
76713;BMP280;65640;43.154;25.658;2023-08-06T02:02:03;99326.34;;;22.55
76713;BMP280;65640;43.154;25.658;2023-08-06T02:04:28;99330.16;;;22.46
76713;BMP280;65640;43.154;25.658;2023-08-06T02:06:53;99329.75;;;22.48
76713;BMP280;65640;43.154;25.658;2023-08-06T02:09:19;99322.91;;;22.65
76713;BMP280;65640;43.154;25.658;2023-08-06T02:11:44;99329.00;;;22.58
76713;BMP280;65640;43.154;25.658;2023-08-06T02:14:10;99333.97;;;22.70
76713;BMP280;65640;43.154;25.658;2023-08-06T02:16:35;99328.59;;;22.77
76713;BMP280;65640;43.154;25.658;2023-08-06T02:19:01;99328.59;;;22.84
76713;BMP280;65640;43.154;25.658;2023-08-06T02:21:26;99324.78;;;22.89
76713;BMP280;65640;43.154;25.658;2023-08-06T02:23:51;99318.69;;;22.85
76713;BMP280;65640;43.154;25.658;2023-08-06T02:26:17;99314.13;;;22.82
76713;BMP280;65640;43.154;25.658;2023-08-06T02:28:42;99321.34;;;22.95
76713;BMP280;65640;43.154;25.658;2023-08-06T02:31:08;99317.94;;;22.84
76713;BMP280;65640;43.154;25.658;2023-08-06T02:33:33;99324.03;;;22.92
76713;BMP280;65640;43.154;25.658;2023-08-06T02:35:59;99322.13;;;22.92
76713;BMP280;65640;43.154;25.658;2023-08-06T02:38:26;99314.09;;;22.78
76713;BMP280;65640;43.154;25.658;2023-08-06T02:40:51;99305.38;;;22.71
76713;BMP280;65640;43.154;25.658;2023-08-06T02:43:17;99302.69;;;22.60
76713;BMP280;65640;43.154;25.658;2023-08-06T02:45:42;99305.75;;;22.55
76713;BMP280;65640;43.154;25.658;2023-08-06T02:48:07;99302.72;;;22.53
76713;BMP280;65640;43.154;25.658;2023-08-06T02:50:40;99300.41;;;22.66
76713;BMP280;65640;43.154;25.658;2023-08-06T02:53:07;99300.03;;;22.60
76713;BMP280;65640;43.154;25.658;2023-08-06T02:55:33;99305.75;;;22.55
76713;BMP280;65640;43.154;25.658;2023-08-06T02:58:02;99313.00;;;22.58
76713;BMP280;65640;43.154;25.658;2023-08-06T03:00:28;99324.84;;;22.50
76713;BMP280;65640;43.154;25.658;2023-08-06T03:02:53;99330.13;;;22.57
76713;BMP280;65640;43.154;25.658;2023-08-06T03:05:19;99330.53;;;22.56
76713;BMP280;65640;43.154;25.658;2023-08-06T03:07:44;99324.06;;;22.46
76713;BMP280;65640;43.154;25.658;2023-08-06T03:10:10;99324.44;;;22.48
76713;BMP280;65640;43.154;25.658;2023-08-06T03:12:35;99333.59;;;22.47
76713;BMP280;65640;43.154;25.658;2023-08-06T03:15:01;99328.25;;;22.58
76713;BMP280;65640;43.154;25.658;2023-08-06T03:17:26;99321.00;;;22.65
76713;BMP280;65640;43.154;25.658;2023-08-06T03:19:51;99327.88;;;22.66
76713;BMP280;65640;43.154;25.658;2023-08-06T03:22:17;99314.13;;;22.57
76713;BMP280;65640;43.154;25.658;2023-08-06T03:24:42;99317.19;;;22.52
76713;BMP280;65640;43.154;25.658;2023-08-06T03:27:08;99311.50;;;22.46
76713;BMP280;65640;43.154;25.658;2023-08-06T03:29:33;99303.84;;;22.41
76713;BMP280;65640;43.154;25.658;2023-08-06T03:31:58;99299.66;;;22.37
76713;BMP280;65640;43.154;25.658;2023-08-06T03:34:24;99305.38;;;22.32
76713;BMP280;65640;43.154;25.658;2023-08-06T03:36:49;99301.56;;;22.15
76713;BMP280;65640;43.154;25.658;2023-08-06T03:39:15;99312.22;;;21.98
76713;BMP280;65640;43.154;25.658;2023-08-06T03:41:40;99306.50;;;22.06
76713;BMP280;65640;43.154;25.658;2023-08-06T03:44:06;99297.75;;;22.13
76713;BMP280;65640;43.154;25.658;2023-08-06T03:46:31;99303.47;;;22.08
76713;BMP280;65640;43.154;25.658;2023-08-06T03:49:00;99308.03;;;22.04
76713;BMP280;65640;43.154;25.658;2023-08-06T03:51:25;99308.44;;;22.30
76713;BMP280;65640;43.154;25.658;2023-08-06T03:53:51;99301.94;;;22.42
76713;BMP280;65640;43.154;25.658;2023-08-06T03:56:16;99299.69;;;22.30
76713;BMP280;65640;43.154;25.658;2023-08-06T03:58:42;99301.19;;;22.17
76713;BMP280;65640;43.154;25.658;2023-08-06T04:01:07;99304.63;;;22.35
76713;BMP280;65640;43.154;25.658;2023-08-06T04:03:33;99306.50;;;22.31
76713;BMP280;65640;43.154;25.658;2023-08-06T04:05:58;99309.94;;;22.35
76713;BMP280;65640;43.154;25.658;2023-08-06T04:08:24;99311.84;;;22.31
76713;BMP280;65640;43.154;25.658;2023-08-06T04:10:50;99307.66;;;22.30
76713;BMP280;65640;43.154;25.658;2023-08-06T04:13:16;99311.47;;;22.29
76713;BMP280;65640;43.154;25.658;2023-08-06T04:15:42;99311.09;;;22.20
76713;BMP280;65640;43.154;25.658;2023-08-06T04:18:07;99315.66;;;22.23
76713;BMP280;65640;43.154;25.658;2023-08-06T04:20:32;99313.75;;;22.20
76713;BMP280;65640;43.154;25.658;2023-08-06T04:22:58;99313.00;;;22.30
76713;BMP280;65640;43.154;25.658;2023-08-06T04:25:23;99308.44;;;22.55
76713;BMP280;65640;43.154;25.658;2023-08-06T04:27:49;99315.63;;;22.76
76713;BMP280;65640;43.154;25.658;2023-08-06T04:30:15;99321.72;;;22.90
76713;BMP280;65640;43.154;25.658;2023-08-06T04:32:40;99327.00;;;23.05
76713;BMP280;65640;43.154;25.658;2023-08-06T04:35:06;99320.53;;;23.13
76713;BMP280;65640;43.154;25.658;2023-08-06T04:37:32;99317.78;;;23.23
76713;BMP280;65640;43.154;25.658;2023-08-06T04:39:58;99309.03;;;23.23
76713;BMP280;65640;43.154;25.658;2023-08-06T04:42:23;99307.09;;;23.34
76713;BMP280;65640;43.154;25.658;2023-08-06T04:44:49;99307.78;;;23.48
76713;BMP280;65640;43.154;25.658;2023-08-06T04:47:15;99299.75;;;23.56
76713;BMP280;65640;43.154;25.658;2023-08-06T04:49:40;99313.03;;;23.66
76713;BMP280;65640;43.154;25.658;2023-08-06T04:52:05;99309.06;;;23.92
76713;BMP280;65640;43.154;25.658;2023-08-06T04:54:31;99301.69;;;24.06
76713;BMP280;65640;43.154;25.658;2023-08-06T04:56:57;99298.28;;;24.06
76713;BMP280;65640;43.154;25.658;2023-08-06T04:59:22;99301.41;;;23.94
76713;BMP280;65640;43.154;25.658;2023-08-06T05:01:47;99296.06;;;23.94
76713;BMP280;65640;43.154;25.658;2023-08-06T05:04:13;99287.66;;;23.95
76713;BMP280;65640;43.154;25.658;2023-08-06T05:06:38;99282.09;;;24.24
76713;BMP280;65640;43.154;25.658;2023-08-06T05:09:04;99273.09;;;24.44
76713;BMP280;65640;43.154;25.658;2023-08-06T05:11:30;99269.34;;;24.76
76713;BMP280;65640;43.154;25.658;2023-08-06T05:13:55;99268.41;;;24.89
76713;BMP280;65640;43.154;25.658;2023-08-06T05:16:21;99269.34;;;25.06
76713;BMP280;65640;43.154;25.658;2023-08-06T05:18:46;99269.38;;;25.33
76713;BMP280;65640;43.154;25.658;2023-08-06T05:21:11;99277.38;;;25.63
76713;BMP280;65640;43.154;25.658;2023-08-06T05:23:37;99274.47;;;25.54
76713;BMP280;65640;43.154;25.658;2023-08-06T05:26:02;99265.38;;;25.71
76713;BMP280;65640;43.154;25.658;2023-08-06T05:28:28;99267.31;;;25.94
76713;BMP280;65640;43.154;25.658;2023-08-06T05:30:53;99272.88;;;25.83
76713;BMP280;65640;43.154;25.658;2023-08-06T05:33:18;99273.66;;;25.80
76713;BMP280;65640;43.154;25.658;2023-08-06T05:35:44;99272.03;;;25.86
76713;BMP280;65640;43.154;25.658;2023-08-06T05:38:09;99278.72;;;26.01
76713;BMP280;65640;43.154;25.658;2023-08-06T05:40:35;99271.16;;;25.43
76713;BMP280;65640;43.154;25.658;2023-08-06T05:43:00;99266.31;;;25.34
76713;BMP280;65640;43.154;25.658;2023-08-06T05:45:26;99265.56;;;25.34
76713;BMP280;65640;43.154;25.658;2023-08-06T05:47:51;99269.25;;;25.43
76713;BMP280;65640;43.154;25.658;2023-08-06T05:50:19;99263.94;;;25.40
76713;BMP280;65640;43.154;25.658;2023-08-06T05:52:44;99263.50;;;25.45
76713;BMP280;65640;43.154;25.658;2023-08-06T05:55:09;99257.66;;;25.50
76713;BMP280;65640;43.154;25.658;2023-08-06T05:57:35;99261.47;;;25.49
76713;BMP280;65640;43.154;25.658;2023-08-06T06:00:01;99250.50;;;25.43
76713;BMP280;65640;43.154;25.658;2023-08-06T06:02:27;99247.28;;;25.25
76713;BMP280;65640;43.154;25.658;2023-08-06T06:04:52;99247.03;;;25.16
76713;BMP280;65640;43.154;25.658;2023-08-06T06:07:18;99239.75;;;25.16
76713;BMP280;65640;43.154;25.658;2023-08-06T06:09:43;99243.09;;;25.24
76713;BMP280;65640;43.154;25.658;2023-08-06T06:12:09;99242.16;;;25.38
76713;BMP280;65640;43.154;25.658;2023-08-06T06:14:34;99241.00;;;25.62
76713;BMP280;65640;43.154;25.658;2023-08-06T06:16:59;99238.75;;;26.07
76713;BMP280;65640;43.154;25.658;2023-08-06T06:19:26;99239.38;;;26.14
76713;BMP280;65640;43.154;25.658;2023-08-06T06:21:52;99238.19;;;25.92
76713;BMP280;65640;43.154;25.658;2023-08-06T06:24:18;99223.88;;;26.02
76713;BMP280;65640;43.154;25.658;2023-08-06T06:26:43;99231.56;;;26.00
76713;BMP280;65640;43.154;25.658;2023-08-06T06:29:09;99236.47;;;26.05
76713;BMP280;65640;43.154;25.658;2023-08-06T06:31:34;99238.09;;;25.99
76713;BMP280;65640;43.154;25.658;2023-08-06T06:34:00;99231.00;;;26.32
76713;BMP280;65640;43.154;25.658;2023-08-06T06:36:26;99228.25;;;26.55
76713;BMP280;65640;43.154;25.658;2023-08-06T06:38:51;99220.88;;;26.59
76713;BMP280;65640;43.154;25.658;2023-08-06T06:41:17;99233.19;;;26.57
76713;BMP280;65640;43.154;25.658;2023-08-06T06:43:42;99230.66;;;26.50
76713;BMP280;65640;43.154;25.658;2023-08-06T06:46:07;99238.13;;;26.19
76713;BMP280;65640;43.154;25.658;2023-08-06T06:48:33;99240.78;;;25.99
76713;BMP280;65640;43.154;25.658;2023-08-06T06:50:58;99239.09;;;26.09
76713;BMP280;65640;43.154;25.658;2023-08-06T06:53:24;99247.09;;;26.12
76713;BMP280;65640;43.154;25.658;2023-08-06T06:55:55;99255.88;;;26.13
76713;BMP280;65640;43.154;25.658;2023-08-06T06:58:21;99263.53;;;26.14
76713;BMP280;65640;43.154;25.658;2023-08-06T07:00:47;99256.09;;;26.22
76713;BMP280;65640;43.154;25.658;2023-08-06T07:03:13;99256.63;;;26.13
76713;BMP280;65640;43.154;25.658;2023-08-06T07:05:38;99260.13;;;26.33
76713;BMP280;65640;43.154;25.658;2023-08-06T07:08:03;99268.97;;;25.88
76713;BMP280;65640;43.154;25.658;2023-08-06T07:10:29;99279.13;;;25.73
76713;BMP280;65640;43.154;25.658;2023-08-06T07:12:54;99274.06;;;25.78
76713;BMP280;65640;43.154;25.658;2023-08-06T07:15:20;99270.28;;;25.99
76713;BMP280;65640;43.154;25.658;2023-08-06T07:17:45;99267.84;;;26.08
76713;BMP280;65640;43.154;25.658;2023-08-06T07:20:11;99271.56;;;26.14
76713;BMP280;65640;43.154;25.658;2023-08-06T07:22:36;99272.56;;;26.24
76713;BMP280;65640;43.154;25.658;2023-08-06T07:25:02;99276.50;;;26.16
76713;BMP280;65640;43.154;25.658;2023-08-06T07:27:27;99288.84;;;26.13
76713;BMP280;65640;43.154;25.658;2023-08-06T07:29:52;99288.78;;;26.17
76713;BMP280;65640;43.154;25.658;2023-08-06T07:32:18;99287.47;;;26.25
76713;BMP280;65640;43.154;25.658;2023-08-06T07:34:43;99294.28;;;26.10
76713;BMP280;65640;43.154;25.658;2023-08-06T07:37:08;99307.69;;;26.10
76713;BMP280;65640;43.154;25.658;2023-08-06T07:39:34;99300.41;;;26.10
76713;BMP280;65640;43.154;25.658;2023-08-06T07:41:59;99300.84;;;26.05
76713;BMP280;65640;43.154;25.658;2023-08-06T07:44:27;99317.09;;;26.18
76713;BMP280;65640;43.154;25.658;2023-08-06T07:46:52;99302.38;;;26.06
76713;BMP280;65640;43.154;25.658;2023-08-06T07:49:18;99307.91;;;25.96
76713;BMP280;65640;43.154;25.658;2023-08-06T07:51:43;99326.13;;;26.08
76713;BMP280;65640;43.154;25.658;2023-08-06T07:54:08;99348.56;;;26.17
76713;BMP280;65640;43.154;25.658;2023-08-06T07:56:34;99343.91;;;26.21
76713;BMP280;65640;43.154;25.658;2023-08-06T07:59:02;99335.56;;;26.16
76713;BMP280;65640;43.154;25.658;2023-08-06T08:01:27;99337.84;;;26.17
76713;BMP280;65640;43.154;25.658;2023-08-06T08:03:52;99334.25;;;26.27
76713;BMP280;65640;43.154;25.658;2023-08-06T08:06:18;99332.53;;;26.37
76713;BMP280;65640;43.154;25.658;2023-08-06T08:08:43;99338.19;;;26.19
76713;BMP280;65640;43.154;25.658;2023-08-06T08:11:08;99322.13;;;26.16
76713;BMP280;65640;43.154;25.658;2023-08-06T08:13:34;99312.53;;;26.38
76713;BMP280;65640;43.154;25.658;2023-08-06T08:16:00;99311.63;;;26.48
76713;BMP280;65640;43.154;25.658;2023-08-06T08:18:26;99310.50;;;26.46
76713;BMP280;65640;43.154;25.658;2023-08-06T08:20:51;99301.91;;;26.34
76713;BMP280;65640;43.154;25.658;2023-08-06T08:23:16;99323.84;;;26.29
76713;BMP280;65640;43.154;25.658;2023-08-06T08:25:42;99311.69;;;26.21
76713;BMP280;65640;43.154;25.658;2023-08-06T08:28:08;99313.69;;;26.17
76713;BMP280;65640;43.154;25.658;2023-08-06T08:30:33;99305.00;;;26.10
76713;BMP280;65640;43.154;25.658;2023-08-06T08:32:58;99309.13;;;26.14
76713;BMP280;65640;43.154;25.658;2023-08-06T08:35:24;99306.75;;;25.97
76713;BMP280;65640;43.154;25.658;2023-08-06T08:37:50;99244.56;;;25.78
76713;BMP280;65640;43.154;25.658;2023-08-06T08:40:15;99161.97;;;25.70
76713;BMP280;65640;43.154;25.658;2023-08-06T08:42:42;99153.81;;;25.54
76713;BMP280;65640;43.154;25.658;2023-08-06T08:45:14;99197.50;;;25.28
76713;BMP280;65640;43.154;25.658;2023-08-06T08:47:41;99183.13;;;25.14
76713;BMP280;65640;43.154;25.658;2023-08-06T08:50:08;99191.75;;;25.26
76713;BMP280;65640;43.154;25.658;2023-08-06T08:52:35;99268.53;;;25.39
76713;BMP280;65640;43.154;25.658;2023-08-06T08:55:01;99306.94;;;25.29
76713;BMP280;65640;43.154;25.658;2023-08-06T08:57:27;99281.59;;;25.37
76713;BMP280;65640;43.154;25.658;2023-08-06T08:59:52;99276.28;;;25.34
76713;BMP280;65640;43.154;25.658;2023-08-06T09:02:18;99280.97;;;25.53
76713;BMP280;65640;43.154;25.658;2023-08-06T09:04:46;99270.97;;;25.57
76713;BMP280;65640;43.154;25.658;2023-08-06T09:07:17;99258.72;;;25.56
76713;BMP280;65640;43.154;25.658;2023-08-06T09:09:43;99276.34;;;25.27
76713;BMP280;65640;43.154;25.658;2023-08-06T09:12:14;99268.91;;;25.11
76713;BMP280;65640;43.154;25.658;2023-08-06T09:14:40;99248.56;;;24.87
76713;BMP280;65640;43.154;25.658;2023-08-06T09:17:06;99235.56;;;24.51
76713;BMP280;65640;43.154;25.658;2023-08-06T09:19:31;99255.19;;;24.38
76713;BMP280;65640;43.154;25.658;2023-08-06T09:21:57;99268.16;;;24.39
76713;BMP280;65640;43.154;25.658;2023-08-06T09:24:23;99269.81;;;24.30
76713;BMP280;65640;43.154;25.658;2023-08-06T09:26:48;99280.50;;;24.30
76713;BMP280;65640;43.154;25.658;2023-08-06T09:29:14;99285.28;;;24.49
76713;BMP280;65640;43.154;25.658;2023-08-06T09:31:49;99303.47;;;24.64
76713;BMP280;65640;43.154;25.658;2023-08-06T09:34:16;99304.94;;;24.73
76713;BMP280;65640;43.154;25.658;2023-08-06T09:36:43;99321.75;;;24.73
76713;BMP280;65640;43.154;25.658;2023-08-06T09:39:21;99328.09;;;24.90
76713;BMP280;65640;43.154;25.658;2023-08-06T09:41:47;99320.78;;;24.94
76713;BMP280;65640;43.154;25.658;2023-08-06T09:44:16;99328.06;;;24.93
76713;BMP280;65640;43.154;25.658;2023-08-06T09:46:47;99334.41;;;25.06
76713;BMP280;65640;43.154;25.658;2023-08-06T09:49:12;99326.59;;;24.85
76713;BMP280;65640;43.154;25.658;2023-08-06T09:51:38;99344.53;;;24.88
76713;BMP280;65640;43.154;25.658;2023-08-06T09:54:05;99368.69;;;24.85
76713;BMP280;65640;43.154;25.658;2023-08-06T09:56:33;99361.16;;;24.76
76713;BMP280;65640;43.154;25.658;2023-08-06T09:59:04;99355.78;;;24.76
76713;BMP280;65640;43.154;25.658;2023-08-06T10:01:32;99348.44;;;24.80
76713;BMP280;65640;43.154;25.658;2023-08-06T10:03:59;99333.84;;;25.22
76713;BMP280;65640;43.154;25.658;2023-08-06T10:06:26;99320.50;;;25.45
76713;BMP280;65640;43.154;25.658;2023-08-06T10:08:53;99318.34;;;25.37
76713;BMP280;65640;43.154;25.658;2023-08-06T10:11:21;99327.91;;;25.38
76713;BMP280;65640;43.154;25.658;2023-08-06T10:13:47;99330.56;;;24.70
76713;BMP280;65640;43.154;25.658;2023-08-06T10:16:14;99339.94;;;24.55
76713;BMP280;65640;43.154;25.658;2023-08-06T10:18:40;99333.03;;;24.54
76713;BMP280;65640;43.154;25.658;2023-08-06T10:21:10;99331.56;;;24.46
76713;BMP280;65640;43.154;25.658;2023-08-06T10:23:40;99342.13;;;24.19
76713;BMP280;65640;43.154;25.658;2023-08-06T10:26:06;99349.16;;;23.99
76713;BMP280;65640;43.154;25.658;2023-08-06T10:28:38;99349.31;;;23.64
76713;BMP280;65640;43.154;25.658;2023-08-06T10:31:05;99361.16;;;23.66
76713;BMP280;65640;43.154;25.658;2023-08-06T10:33:47;99374.50;;;23.70
76713;BMP280;65640;43.154;25.658;2023-08-06T10:36:14;99372.19;;;23.75
76713;BMP280;65640;43.154;25.658;2023-08-06T10:38:49;99373.19;;;24.02
76713;BMP280;65640;43.154;25.658;2023-08-06T10:41:17;99386.88;;;24.12
76713;BMP280;65640;43.154;25.658;2023-08-06T10:43:47;99398.72;;;24.10
76713;BMP280;65640;43.154;25.658;2023-08-06T10:46:22;99385.16;;;23.77
76713;BMP280;65640;43.154;25.658;2023-08-06T10:48:48;99378.19;;;23.90
76713;BMP280;65640;43.154;25.658;2023-08-06T10:51:14;99361.66;;;24.13
76713;BMP280;65640;43.154;25.658;2023-08-06T10:53:44;99361.34;;;24.00
76713;BMP280;65640;43.154;25.658;2023-08-06T10:56:17;99360.19;;;24.04
76713;BMP280;65640;43.154;25.658;2023-08-06T10:58:45;99371.56;;;24.16
76713;BMP280;65640;43.154;25.658;2023-08-06T11:01:11;99382.25;;;24.16
76713;BMP280;65640;43.154;25.658;2023-08-06T11:03:37;99380.78;;;24.07
76713;BMP280;65640;43.154;25.658;2023-08-06T11:06:03;99383.91;;;23.95
76713;BMP280;65640;43.154;25.658;2023-08-06T11:08:34;99375.25;;;23.77
76713;BMP280;65640;43.154;25.658;2023-08-06T11:11:13;99393.97;;;23.70
76713;BMP280;65640;43.154;25.658;2023-08-06T11:13:39;99409.25;;;23.66
76713;BMP280;65640;43.154;25.658;2023-08-06T11:16:05;99431.91;;;23.37
76713;BMP280;65640;43.154;25.658;2023-08-06T11:18:31;99444.50;;;23.29
76713;BMP280;65640;43.154;25.658;2023-08-06T11:21:01;99444.91;;;22.99
76713;BMP280;65640;43.154;25.658;2023-08-06T11:23:28;99452.91;;;22.82
76713;BMP280;65640;43.154;25.658;2023-08-06T11:25:57;99439.53;;;22.43
76713;BMP280;65640;43.154;25.658;2023-08-06T11:28:22;99406.31;;;22.19
76713;BMP280;65640;43.154;25.658;2023-08-06T11:30:49;99369.75;;;22.13
76713;BMP280;65640;43.154;25.658;2023-08-06T11:33:20;99356.03;;;22.18
76713;BMP280;65640;43.154;25.658;2023-08-06T11:35:45;99322.53;;;22.27
76713;BMP280;65640;43.154;25.658;2023-08-06T11:38:13;99346.94;;;22.40
76713;BMP280;65640;43.154;25.658;2023-08-06T11:40:38;99384.97;;;22.02
76713;BMP280;65640;43.154;25.658;2023-08-06T11:43:05;99411.53;;;21.87
76713;BMP280;65640;43.154;25.658;2023-08-06T11:45:31;99405.09;;;21.85
76713;BMP280;65640;43.154;25.658;2023-08-06T11:47:59;99414.66;;;22.00
76713;BMP280;65640;43.154;25.658;2023-08-06T11:50:26;99424.16;;;21.98
76713;BMP280;65640;43.154;25.658;2023-08-06T11:52:59;99414.59;;;21.89
76713;BMP280;65640;43.154;25.658;2023-08-06T11:55:26;99398.63;;;21.89
76713;BMP280;65640;43.154;25.658;2023-08-06T11:57:54;99418.84;;;22.01
76713;BMP280;65640;43.154;25.658;2023-08-06T12:00:19;99431.81;;;22.10
76713;BMP280;65640;43.154;25.658;2023-08-06T12:02:48;99439.78;;;21.99
76713;BMP280;65640;43.154;25.658;2023-08-06T12:05:19;99451.19;;;22.00
76713;BMP280;65640;43.154;25.658;2023-08-06T12:07:56;99454.56;;;21.86
76713;BMP280;65640;43.154;25.658;2023-08-06T12:10:24;99454.28;;;22.02
76713;BMP280;65640;43.154;25.658;2023-08-06T12:12:50;99452.78;;;22.18
76713;BMP280;65640;43.154;25.658;2023-08-06T12:15:16;99444.47;;;22.30
76713;BMP280;65640;43.154;25.658;2023-08-06T12:17:41;99431.16;;;22.62
76713;BMP280;65640;43.154;25.658;2023-08-06T12:20:08;99420.09;;;22.67
76713;BMP280;65640;43.154;25.658;2023-08-06T12:22:34;99418.97;;;22.75
76713;BMP280;65640;43.154;25.658;2023-08-06T12:25:07;99408.66;;;23.02
76713;BMP280;65640;43.154;25.658;2023-08-06T12:27:36;99413.22;;;23.26
76713;BMP280;65640;43.154;25.658;2023-08-06T12:30:02;99410.13;;;23.35
76713;BMP280;65640;43.154;25.658;2023-08-06T12:32:29;99398.56;;;23.66
76713;BMP280;65640;43.154;25.658;2023-08-06T12:34:54;99392.88;;;23.61
76713;BMP280;65640;43.154;25.658;2023-08-06T12:37:20;99392.16;;;23.46
76713;BMP280;65640;43.154;25.658;2023-08-06T12:39:45;99392.81;;;23.71
76713;BMP280;65640;43.154;25.658;2023-08-06T12:42:11;99384.44;;;23.69
76713;BMP280;65640;43.154;25.658;2023-08-06T12:44:36;99380.16;;;23.82
76713;BMP280;65640;43.154;25.658;2023-08-06T12:47:01;99383.00;;;24.23
76713;BMP280;65640;43.154;25.658;2023-08-06T12:49:27;99385.34;;;24.62
76713;BMP280;65640;43.154;25.658;2023-08-06T12:51:54;99383.03;;;24.64
76713;BMP280;65640;43.154;25.658;2023-08-06T12:54:20;99375.78;;;24.61
76713;BMP280;65640;43.154;25.658;2023-08-06T12:56:46;99365.06;;;24.64
76713;BMP280;65640;43.154;25.658;2023-08-06T12:59:14;99355.78;;;25.13
76713;BMP280;65640;43.154;25.658;2023-08-06T13:01:40;99346.59;;;25.71
76713;BMP280;65640;43.154;25.658;2023-08-06T13:04:06;99347.06;;;26.16
76713;BMP280;65640;43.154;25.658;2023-08-06T13:06:31;99343.66;;;26.35
76713;BMP280;65640;43.154;25.658;2023-08-06T13:09:09;99332.41;;;26.83
76713;BMP280;65640;43.154;25.658;2023-08-06T13:11:36;99336.44;;;26.95
76713;BMP280;65640;43.154;25.658;2023-08-06T13:14:08;99335.06;;;26.87
76713;BMP280;65640;43.154;25.658;2023-08-06T13:16:35;99328.66;;;27.01
76713;BMP280;65640;43.154;25.658;2023-08-06T13:19:01;99324.88;;;26.98
76713;BMP280;65640;43.154;25.658;2023-08-06T13:22:12;99316.19;;;26.71
76713;BMP280;65640;43.154;25.658;2023-08-06T13:24:13;99312.72;;;26.90
76713;BMP280;65640;43.154;25.658;2023-08-06T13:26:39;99307.94;;;27.01
76713;BMP280;65640;43.154;25.658;2023-08-06T13:29:04;99304.50;;;27.17
76713;BMP280;65640;43.154;25.658;2023-08-06T13:31:32;99313.53;;;27.07
76713;BMP280;65640;43.154;25.658;2023-08-06T13:33:57;99309.50;;;26.99
76713;BMP280;65640;43.154;25.658;2023-08-06T13:36:24;99299.91;;;27.17
76713;BMP280;65640;43.154;25.658;2023-08-06T13:38:49;99303.91;;;27.25
76713;BMP280;65640;43.154;25.658;2023-08-06T13:41:15;99308.78;;;27.30
76713;BMP280;65640;43.154;25.658;2023-08-06T13:43:41;99303.97;;;27.58
76713;BMP280;65640;43.154;25.658;2023-08-06T13:46:06;99303.63;;;27.56
76713;BMP280;65640;43.154;25.658;2023-08-06T13:48:31;99308.84;;;27.63
76713;BMP280;65640;43.154;25.658;2023-08-06T13:50:57;99297.75;;;27.77
76713;BMP280;65640;43.154;25.658;2023-08-06T13:53:23;99310.94;;;27.71
76713;BMP280;65640;43.154;25.658;2023-08-06T13:55:50;99316.75;;;27.53
76713;BMP280;65640;43.154;25.658;2023-08-06T13:58:15;99319.38;;;27.21
76713;BMP280;65640;43.154;25.658;2023-08-06T14:00:41;99314.28;;;27.43